Time;durP1;ratioP1;P1;durP2;ratioP2;P2;SDS_P1;SDS_P2;PMS_P1;PMS_P2;Temp;Humidity;BMP_temperature;BMP_pressure;BME280_temperature;BME280_humidity;BME280_pressure;Samples;Min_cycle;Max_cycle;Signal;HPM_P1;HPM_P2
2022/01/05 00:02:17;;;;;;;18.90;9.00;;;13.00;99.90;;;;;;6240616;22;20023;-74
2022/01/05 00:04:44;;;;;;;19.60;9.27;;;13.00;99.90;;;;;;6248323;22;20479;-75
2022/01/05 00:07:12;;;;;;;20.35;8.77;;;13.00;99.90;;;;;;6216498;22;20012;-74
2022/01/05 00:09:38;;;;;;;18.08;9.10;;;13.00;99.90;;;;;;6245673;22;20020;-73
2022/01/05 00:12:04;;;;;;;16.02;8.55;;;13.00;99.90;;;;;;6242118;22;20032;-76
2022/01/05 00:14:32;;;;;;;26.00;8.18;;;13.00;99.90;;;;;;6243651;22;20046;-75
2022/01/05 00:16:58;;;;;;;14.38;7.57;;;13.00;99.90;;;;;;6245437;22;20031;-75
2022/01/05 00:19:24;;;;;;;15.38;7.78;;;12.90;99.90;;;;;;6239731;22;20324;-74
2022/01/05 00:21:50;;;;;;;20.05;8.15;;;13.00;99.90;;;;;;6239028;22;20442;-74
2022/01/05 00:24:16;;;;;;;16.45;7.68;;;13.00;99.90;;;;;;6243611;22;20055;-77
2022/01/05 00:26:43;;;;;;;13.48;7.80;;;13.00;99.90;;;;;;6263649;22;20011;-75
2022/01/05 00:29:10;;;;;;;13.95;7.70;;;13.10;99.90;;;;;;6265078;22;20955;-76
2022/01/05 00:31:35;;;;;;;19.40;8.57;;;13.10;99.90;;;;;;6244830;22;20034;-74
2022/01/05 00:34:01;;;;;;;18.83;9.02;;;13.20;99.90;;;;;;6256874;22;20039;-75
2022/01/05 00:36:27;;;;;;;18.88;8.63;;;13.20;99.90;;;;;;6238987;22;20023;-74
2022/01/05 00:38:54;;;;;;;20.50;9.32;;;13.30;99.90;;;;;;6239347;22;20016;-73
2022/01/05 00:41:20;;;;;;;21.80;10.68;;;13.40;99.90;;;;;;6237879;22;20077;-75
2022/01/05 00:43:47;;;;;;;24.33;13.07;;;13.40;99.90;;;;;;6240826;22;20441;-76
2022/01/05 00:46:12;;;;;;;21.50;12.15;;;13.50;99.90;;;;;;6239188;22;20023;-73
2022/01/05 00:48:38;;;;;;;23.70;11.95;;;13.40;99.90;;;;;;6244694;22;20015;-74
2022/01/05 00:51:06;;;;;;;28.30;13.63;;;13.50;99.90;;;;;;6255502;22;20022;-74
2022/01/05 00:53:34;;;;;;;29.17;14.75;;;13.50;99.90;;;;;;6248528;22;20042;-75
2022/01/05 00:56:00;;;;;;;25.08;15.70;;;13.60;99.90;;;;;;6239212;22;20032;-74
2022/01/05 00:58:26;;;;;;;33.15;16.67;;;13.60;99.90;;;;;;6251697;22;20022;-73
2022/01/05 01:00:52;;;;;;;27.92;16.90;;;13.60;99.90;;;;;;6264975;22;20327;-74
2022/01/05 01:03:19;;;;;;;35.33;18.02;;;13.60;99.90;;;;;;6237186;22;20020;-75
2022/01/05 01:05:44;;;;;;;34.22;17.73;;;13.50;99.90;;;;;;6237503;22;20019;-73
2022/01/05 01:08:10;;;;;;;30.77;16.85;;;13.50;99.90;;;;;;6241130;22;20020;-72
2022/01/05 01:10:36;;;;;;;36.33;18.13;;;13.50;99.90;;;;;;6248341;22;20040;-71
2022/01/05 01:13:03;;;;;;;31.98;18.08;;;13.40;99.90;;;;;;6236905;22;20078;-71
2022/01/05 01:15:29;;;;;;;31.30;19.15;;;13.50;99.90;;;;;;6223245;22;20019;-72
2022/01/05 01:17:55;;;;;;;34.10;17.98;;;13.40;99.90;;;;;;6243087;22;20016;-73
2022/01/05 01:20:21;;;;;;;30.77;19.50;;;13.40;99.90;;;;;;6234029;22;20077;-72
2022/01/05 01:22:49;;;;;;;34.17;17.63;;;13.40;99.90;;;;;;6238801;22;20027;-73
2022/01/05 01:25:15;;;;;;;33.28;18.50;;;13.40;99.90;;;;;;6236704;22;20340;-74
2022/01/05 01:27:43;;;;;;;29.25;17.50;;;13.40;99.90;;;;;;6238903;22;20023;-72
2022/01/05 01:30:10;;;;;;;28.17;16.30;;;13.40;99.90;;;;;;6249040;22;20385;-72
2022/01/05 01:32:37;;;;;;;29.65;16.38;;;13.40;99.90;;;;;;6240083;22;20040;-72
2022/01/05 01:35:05;;;;;;;31.35;16.65;;;13.40;99.90;;;;;;6224051;22;20069;-71
2022/01/05 01:37:31;;;;;;;29.52;15.82;;;13.40;99.90;;;;;;6249811;22;20375;-72
2022/01/05 01:39:57;;;;;;;33.70;16.88;;;13.40;99.90;;;;;;6251863;22;20325;-71
2022/01/05 01:42:23;;;;;;;28.08;16.35;;;13.30;99.90;;;;;;6237936;22;20111;-71
2022/01/05 01:44:49;;;;;;;31.67;17.63;;;13.30;99.90;;;;;;6239469;22;20387;-75
2022/01/05 01:47:16;;;;;;;31.63;16.45;;;13.20;99.90;;;;;;6234314;22;20756;-72
2022/01/05 01:49:43;;;;;;;28.17;16.17;;;13.10;99.90;;;;;;6247509;22;20018;-72
2022/01/05 01:52:09;;;;;;;27.42;16.83;;;13.00;99.90;;;;;;6224467;22;20077;-72
2022/01/05 01:54:38;;;;;;;30.05;15.65;;;12.90;99.90;;;;;;6250200;22;20099;-71
2022/01/05 01:57:06;;;;;;;24.33;14.35;;;12.90;99.90;;;;;;6238136;22;20455;-72
2022/01/05 01:59:32;;;;;;;28.10;15.02;;;12.80;99.90;;;;;;6246208;22;20031;-72
2022/01/05 02:01:58;;;;;;;23.65;14.13;;;12.80;99.90;;;;;;6245038;22;20015;-71
2022/01/05 02:04:24;;;;;;;23.60;13.10;;;12.70;99.90;;;;;;6250711;22;20011;-71
2022/01/05 02:06:51;;;;;;;26.65;13.77;;;12.70;99.90;;;;;;6240912;22;20036;-71
2022/01/05 02:09:17;;;;;;;28.00;13.15;;;12.60;99.90;;;;;;6239786;22;20098;-71
2022/01/05 02:11:43;;;;;;;22.67;12.35;;;12.60;99.90;;;;;;6216922;22;20019;-72
2022/01/05 02:14:08;;;;;;;25.67;12.50;;;12.60;99.90;;;;;;6235645;22;20423;-71
2022/01/05 02:16:41;;;;;;;23.08;11.93;;;12.60;99.90;;;;;;6239651;22;20074;-71
2022/01/05 02:19:07;;;;;;;22.67;12.70;;;12.60;99.90;;;;;;6250656;22;20095;-72
2022/01/05 02:21:35;;;;;;;21.48;12.70;;;12.60;99.90;;;;;;6245215;22;20237;-73
2022/01/05 02:24:02;;;;;;;23.30;12.65;;;12.60;99.90;;;;;;6234870;22;20105;-72
2022/01/05 02:26:29;;;;;;;25.92;13.00;;;12.70;99.90;;;;;;6268487;22;20015;-72
2022/01/05 02:28:58;;;;;;;18.52;12.32;;;12.70;99.90;;;;;;6236093;22;20094;-71
2022/01/05 02:31:24;;;;;;;21.30;11.95;;;12.70;99.90;;;;;;6252104;22;20066;-71
2022/01/05 02:33:50;;;;;;;18.42;11.63;;;12.70;99.90;;;;;;6211984;23;20066;-71
2022/01/05 02:36:19;;;;;;;21.45;12.00;;;12.70;99.90;;;;;;6252607;22;20023;-72
2022/01/05 02:38:47;;;;;;;24.40;12.75;;;12.70;99.90;;;;;;6247998;22;20016;-72
2022/01/05 02:41:13;;;;;;;20.02;11.48;;;12.70;99.90;;;;;;6237605;22;20012;-73
2022/01/05 02:43:41;;;;;;;21.50;10.02;;;12.70;99.90;;;;;;6260448;22;20019;-73
2022/01/05 02:46:13;;;;;;;17.50;9.88;;;12.70;99.90;;;;;;6257632;22;20044;-72
2022/01/05 02:48:39;;;;;;;21.33;10.48;;;12.70;99.90;;;;;;6256682;22;20022;-71
2022/01/05 02:51:06;;;;;;;14.73;9.30;;;12.70;99.90;;;;;;6255215;22;20016;-72
2022/01/05 02:53:33;;;;;;;16.40;10.20;;;12.70;99.90;;;;;;6249890;22;20047;-72
2022/01/05 02:55:59;;;;;;;18.23;9.68;;;12.80;99.90;;;;;;6238473;22;20024;-71
2022/01/05 02:58:27;;;;;;;20.05;10.40;;;12.80;99.90;;;;;;6237992;22;20317;-72
2022/01/05 03:00:53;;;;;;;19.90;11.38;;;12.70;99.90;;;;;;6251223;22;20759;-71
2022/01/05 03:03:19;;;;;;;18.05;10.38;;;12.70;99.90;;;;;;6255157;22;20455;-71
2022/01/05 03:05:45;;;;;;;19.40;11.75;;;12.60;99.90;;;;;;6233204;22;20016;-72
2022/01/05 03:08:11;;;;;;;19.45;11.98;;;12.60;99.90;;;;;;6253913;22;20043;-71
2022/01/05 03:10:37;;;;;;;16.70;10.65;;;12.40;99.90;;;;;;6271113;22;20027;-71
2022/01/05 03:13:05;;;;;;;16.73;10.95;;;12.40;99.90;;;;;;6256878;22;20019;-71
2022/01/05 03:15:37;;;;;;;16.88;11.95;;;12.50;99.90;;;;;;6257831;22;20093;-71
2022/01/05 03:18:05;;;;;;;18.13;12.35;;;12.40;99.90;;;;;;6269957;22;20062;-72
2022/01/05 03:20:32;;;;;;;18.10;12.90;;;12.40;99.90;;;;;;6244078;22;20018;-70
2022/01/05 03:22:59;;;;;;;20.30;11.38;;;12.30;99.90;;;;;;6254942;22;20011;-72
2022/01/05 03:25:26;;;;;;;18.33;12.07;;;12.30;99.90;;;;;;6256499;22;20928;-71
2022/01/05 03:27:54;;;;;;;21.90;12.80;;;12.30;99.90;;;;;;6255952;22;20012;-71
2022/01/05 03:30:23;;;;;;;19.40;12.13;;;12.30;99.90;;;;;;6256823;22;20474;-72
2022/01/05 03:35:40;;;;;;;16.00;10.75;;;12.30;99.90;;;;;;6261917;22;20077;-72
2022/01/05 03:38:08;;;;;;;15.98;10.15;;;12.30;99.90;;;;;;6264456;22;20145;-71
2022/01/05 03:40:34;;;;;;;14.60;10.57;;;12.40;99.90;;;;;;6249860;22;20094;-71
2022/01/05 03:43:01;;;;;;;16.98;12.18;;;12.30;99.90;;;;;;6240459;22;20020;-70
2022/01/05 03:45:27;;;;;;;20.08;14.02;;;12.20;99.90;;;;;;6236771;22;20012;-71
2022/01/05 03:47:54;;;;;;;21.02;14.00;;;11.90;99.90;;;;;;6236277;22;20016;-71
2022/01/05 03:50:20;;;;;;;19.02;14.43;;;11.80;99.90;;;;;;6216270;22;20036;-71
2022/01/05 03:52:45;;;;;;;20.95;14.85;;;11.70;99.90;;;;;;6237923;22;20092;-72
2022/01/05 03:55:12;;;;;;;19.02;14.15;;;11.70;99.90;;;;;;6236645;22;20016;-71
2022/01/05 03:57:38;;;;;;;17.55;13.18;;;11.70;99.90;;;;;;6237555;22;20031;-73
2022/01/05 04:00:06;;;;;;;19.58;12.90;;;11.70;99.90;;;;;;6248585;22;20012;-72
2022/01/05 04:02:31;;;;;;;16.77;12.25;;;11.70;99.90;;;;;;6244381;22;20015;-72
2022/01/05 04:04:57;;;;;;;16.95;13.25;;;11.60;99.90;;;;;;6255968;22;20333;-72
2022/01/05 04:07:23;;;;;;;19.65;13.32;;;11.40;99.90;;;;;;6237969;22;20074;-71
2022/01/05 04:09:49;;;;;;;16.95;14.20;;;11.30;99.90;;;;;;6240247;22;20017;-69
2022/01/05 04:12:15;;;;;;;20.60;13.85;;;11.10;99.90;;;;;;6238369;22;20040;-71
2022/01/05 04:14:43;;;;;;;17.00;13.38;;;10.90;99.90;;;;;;6240185;22;20012;-70
2022/01/05 04:17:08;;;;;;;18.70;12.93;;;10.70;99.90;;;;;;6214398;22;20448;-71
2022/01/05 04:19:35;;;;;;;17.70;12.35;;;10.70;99.90;;;;;;6238082;22;20019;-71
2022/01/05 04:22:01;;;;;;;16.63;12.40;;;10.80;99.90;;;;;;6250527;22;20483;-71
2022/01/05 04:24:27;;;;;;;16.83;10.93;;;10.70;99.90;;;;;;6249452;22;20008;-71
2022/01/05 04:26:54;;;;;;;15.35;11.25;;;10.60;99.90;;;;;;6250017;22;20014;-71
2022/01/05 04:29:20;;;;;;;17.52;11.65;;;10.50;99.90;;;;;;6238503;22;20441;-71
2022/01/05 04:31:47;;;;;;;17.45;11.18;;;10.40;99.90;;;;;;6239866;22;20018;-70
2022/01/05 04:34:13;;;;;;;19.98;13.35;;;10.30;99.90;;;;;;6238685;22;20023;-71
2022/01/05 04:36:39;;;;;;;18.77;13.18;;;10.20;99.90;;;;;;6248444;22;20100;-70
2022/01/05 04:39:05;;;;;;;17.60;13.35;;;10.10;99.90;;;;;;6255138;22;20011;-70
2022/01/05 04:41:31;;;;;;;16.05;12.27;;;9.90;99.90;;;;;;6264061;22;20019;-71
2022/01/05 04:43:57;;;;;;;19.20;13.93;;;9.80;99.90;;;;;;6264202;22;20026;-71
2022/01/05 04:46:23;;;;;;;19.90;14.00;;;9.80;99.90;;;;;;6255991;22;20019;-70
2022/01/05 04:48:49;;;;;;;20.20;12.85;;;9.80;99.90;;;;;;6270145;22;20023;-70
2022/01/05 04:51:16;;;;;;;16.77;13.13;;;9.70;99.90;;;;;;6239552;22;20008;-70
2022/01/05 04:53:42;;;;;;;18.02;13.38;;;9.70;99.90;;;;;;6237972;22;20027;-70
2022/01/05 04:56:08;;;;;;;18.08;13.90;;;9.60;99.90;;;;;;6248961;22;20020;-70
2022/01/05 04:58:34;;;;;;;15.52;12.48;;;9.60;99.90;;;;;;6251471;22;20016;-70
2022/01/05 05:01:00;;;;;;;13.23;9.82;;;9.60;99.90;;;;;;6250485;22;20116;-72
2022/01/05 05:03:26;;;;;;;13.27;10.57;;;9.60;99.90;;;;;;6253797;22;20019;-71
2022/01/05 05:05:52;;;;;;;11.57;9.38;;;9.70;99.90;;;;;;6270578;22;20078;-70
2022/01/05 05:08:18;;;;;;;12.52;9.00;;;9.60;99.90;;;;;;6237622;22;20167;-73
2022/01/05 05:10:44;;;;;;;10.35;8.02;;;9.60;99.90;;;;;;6259578;22;20020;-70
2022/01/05 05:13:11;;;;;;;13.98;7.82;;;9.50;99.90;;;;;;6239618;22;20027;-70
2022/01/05 05:15:38;;;;;;;8.13;6.03;;;9.50;99.90;;;;;;6258579;22;20018;-71
2022/01/05 05:18:05;;;;;;;8.32;6.57;;;9.50;99.90;;;;;;6267946;22;20003;-70
2022/01/05 05:20:32;;;;;;;14.93;7.15;;;9.50;99.90;;;;;;6246302;22;20008;-70
2022/01/05 05:22:59;;;;;;;10.57;6.97;;;9.40;99.90;;;;;;6237264;22;20047;-70
2022/01/05 05:25:25;;;;;;;9.43;6.85;;;9.40;99.90;;;;;;6214059;22;20035;-71
2022/01/05 05:27:51;;;;;;;9.43;6.97;;;9.40;99.90;;;;;;6262180;22;20386;-71
2022/01/05 05:30:17;;;;;;;14.07;10.57;;;9.40;99.90;;;;;;6237296;22;20024;-71
2022/01/05 05:32:42;;;;;;;14.98;10.40;;;9.40;99.90;;;;;;6236653;22;20020;-70
2022/01/05 05:35:09;;;;;;;12.60;9.50;;;9.30;99.90;;;;;;6237304;22;20039;-71
2022/01/05 05:37:36;;;;;;;9.82;7.72;;;9.30;99.90;;;;;;6238421;22;20066;-70
2022/01/05 05:40:03;;;;;;;10.93;7.95;;;9.30;99.90;;;;;;6239317;22;20016;-71
2022/01/05 05:42:30;;;;;;;11.13;8.10;;;9.40;99.90;;;;;;6248408;22;20023;-70
2022/01/05 05:44:55;;;;;;;10.30;7.45;;;9.40;99.90;;;;;;6237396;22;20093;-71
2022/01/05 05:47:22;;;;;;;9.48;7.38;;;9.40;99.90;;;;;;6237170;22;20464;-71
2022/01/05 05:49:48;;;;;;;9.93;7.63;;;9.30;99.90;;;;;;6239140;22;20020;-70
2022/01/05 05:52:16;;;;;;;11.82;8.00;;;9.30;99.90;;;;;;6235107;22;20012;-71
2022/01/05 05:54:43;;;;;;;11.88;8.00;;;9.30;99.90;;;;;;6237147;23;20015;-70
2022/01/05 05:57:09;;;;;;;9.50;6.90;;;9.30;99.90;;;;;;6235807;22;20012;-70
2022/01/05 05:59:36;;;;;;;9.23;6.30;;;9.30;99.90;;;;;;6258342;22;20016;-71
2022/01/05 06:02:02;;;;;;;10.60;6.60;;;9.30;99.90;;;;;;6243430;22;20313;-70
2022/01/05 06:04:30;;;;;;;7.88;5.63;;;9.30;99.90;;;;;;6256204;22;20008;-72
2022/01/05 06:06:55;;;;;;;7.93;5.85;;;9.30;99.90;;;;;;6245177;22;20024;-71
2022/01/05 06:09:21;;;;;;;8.93;4.47;;;9.30;99.90;;;;;;6238533;22;20016;-71
2022/01/05 06:11:47;;;;;;;5.22;3.53;;;9.30;99.90;;;;;;6246872;22;20012;-72
2022/01/05 06:14:13;;;;;;;6.13;3.42;;;9.30;99.90;;;;;;6253946;22;20016;-71
2022/01/05 06:16:39;;;;;;;6.50;3.13;;;9.20;99.90;;;;;;6247685;22;20329;-70
2022/01/05 06:19:05;;;;;;;5.47;3.03;;;9.30;99.90;;;;;;6237380;22;20111;-70
2022/01/05 06:21:30;;;;;;;5.65;3.40;;;9.30;99.90;;;;;;6238146;22;20008;-70
2022/01/05 06:23:57;;;;;;;8.82;3.20;;;9.20;99.90;;;;;;6240292;22;20016;-70
2022/01/05 06:26:23;;;;;;;3.88;2.35;;;9.20;99.90;;;;;;6242705;22;20024;-71
2022/01/05 06:28:50;;;;;;;3.58;2.00;;;9.20;99.90;;;;;;6245280;22;20322;-71
2022/01/05 06:31:17;;;;;;;3.88;2.28;;;9.20;99.90;;;;;;6237512;22;20078;-71
2022/01/05 06:33:42;;;;;;;3.80;2.38;;;9.20;99.90;;;;;;6253444;22;20020;-70
2022/01/05 06:36:10;;;;;;;3.72;2.38;;;9.20;99.90;;;;;;6260379;22;20482;-72
2022/01/05 06:38:36;;;;;;;3.53;2.30;;;9.10;99.90;;;;;;6240204;22;20074;-70
2022/01/05 06:41:02;;;;;;;5.10;2.70;;;9.10;99.90;;;;;;6247818;22;20118;-71
2022/01/05 06:43:30;;;;;;;3.08;1.75;;;9.00;99.90;;;;;;6239628;22;20123;-72
2022/01/05 06:45:57;;;;;;;2.30;1.92;;;9.00;99.90;;;;;;6249801;22;20016;-70
2022/01/05 06:48:23;;;;;;;4.45;1.92;;;9.00;99.90;;;;;;6253575;22;20149;-71
2022/01/05 06:50:50;;;;;;;3.55;2.22;;;8.90;99.90;;;;;;6258740;22;20455;-70
2022/01/05 06:53:16;;;;;;;4.90;2.70;;;9.00;99.90;;;;;;6266552;22;20096;-70
2022/01/05 06:55:42;;;;;;;3.88;2.25;;;9.00;99.90;;;;;;6261533;22;20019;-71
2022/01/05 06:58:08;;;;;;;5.25;2.75;;;9.10;99.90;;;;;;6257664;22;20383;-70
2022/01/05 07:00:34;;;;;;;6.25;2.95;;;9.10;99.90;;;;;;6255741;22;20016;-71
2022/01/05 07:03:00;;;;;;;5.88;3.55;;;9.10;99.90;;;;;;6271042;22;20632;-71
2022/01/05 07:05:26;;;;;;;7.05;3.33;;;9.20;99.90;;;;;;6256477;22;20019;-72
2022/01/05 07:07:52;;;;;;;4.68;2.65;;;9.10;99.90;;;;;;6271468;22;20026;-70
2022/01/05 07:10:19;;;;;;;6.05;2.85;;;9.10;99.90;;;;;;6256006;22;20023;-72
2022/01/05 07:12:46;;;;;;;8.18;3.28;;;9.10;99.90;;;;;;6262377;22;20031;-71
2022/01/05 07:15:13;;;;;;;9.90;3.13;;;9.10;99.90;;;;;;6264437;22;20023;-71
2022/01/05 07:17:39;;;;;;;5.90;2.50;;;9.00;99.90;;;;;;6246996;22;20018;-71
2022/01/05 07:20:05;;;;;;;4.57;2.05;;;8.90;99.90;;;;;;6269382;22;20035;-72
2022/01/05 07:22:31;;;;;;;5.65;1.67;;;8.80;99.90;;;;;;6250177;22;20036;-72
2022/01/05 07:24:57;;;;;;;3.38;2.00;;;8.80;99.90;;;;;;6240627;22;20023;-72
2022/01/05 07:27:24;;;;;;;4.40;2.08;;;8.80;99.90;;;;;;6238513;22;20099;-74
2022/01/05 07:29:50;;;;;;;6.55;1.85;;;8.90;99.90;;;;;;6241836;22;20471;-71
2022/01/05 07:32:16;;;;;;;4.53;2.17;;;8.90;99.90;;;;;;6217189;22;20103;-72
2022/01/05 07:34:42;;;;;;;8.70;2.17;;;8.90;99.90;;;;;;6240207;22;20048;-71
2022/01/05 07:37:09;;;;;;;5.63;2.70;;;8.80;99.90;;;;;;6239046;22;20023;-71
2022/01/05 07:39:36;;;;;;;5.63;3.60;;;8.80;99.90;;;;;;6241350;22;20020;-71
2022/01/05 07:42:03;;;;;;;5.47;2.38;;;8.90;99.90;;;;;;6240849;22;20031;-73
2022/01/05 07:44:29;;;;;;;9.20;1.95;;;8.70;99.90;;;;;;6237222;23;20471;-71
2022/01/05 07:46:56;;;;;;;5.25;1.90;;;8.70;99.90;;;;;;6253753;22;20050;-71
2022/01/05 07:49:22;;;;;;;2.45;1.05;;;8.60;99.90;;;;;;6250845;22;20019;-71
2022/01/05 07:51:49;;;;;;;4.80;1.27;;;8.40;99.90;;;;;;6241681;22;20019;-71
2022/01/05 07:54:15;;;;;;;2.95;1.10;;;8.40;99.90;;;;;;6248351;22;20018;-72
2022/01/05 07:56:41;;;;;;;2.35;0.90;;;8.30;99.90;;;;;;6247364;22;20015;-72
2022/01/05 07:59:07;;;;;;;2.20;1.00;;;8.20;99.90;;;;;;6256238;22;20016;-72
2022/01/05 08:01:33;;;;;;;1.70;0.60;;;8.10;99.90;;;;;;6252079;22;20023;-71
2022/01/05 08:04:00;;;;;;;4.47;1.10;;;8.00;99.90;;;;;;6251535;22;20325;-71
2022/01/05 08:06:26;;;;;;;1.17;0.70;;;7.80;99.90;;;;;;6249845;22;20016;-73
2022/01/05 08:08:52;;;;;;;3.47;0.70;;;7.90;99.90;;;;;;6239028;22;20335;-71
2022/01/05 08:11:18;;;;;;;1.83;0.60;;;7.80;99.90;;;;;;6235752;22;20027;-72
2022/01/05 08:13:45;;;;;;;0.70;0.60;;;7.90;99.90;;;;;;6246439;22;20024;-72
2022/01/05 08:16:11;;;;;;;1.25;0.50;;;7.80;99.90;;;;;;6211241;22;20066;-71
2022/01/05 08:18:37;;;;;;;1.85;0.60;;;7.70;99.90;;;;;;6238910;22;20016;-72
2022/01/05 08:21:03;;;;;;;1.90;0.50;;;7.70;99.90;;;;;;6250346;22;20045;-72
2022/01/05 08:23:30;;;;;;;4.03;0.85;;;7.60;99.90;;;;;;6238690;22;20475;-71
2022/01/05 08:25:56;;;;;;;3.20;0.60;;;7.80;99.90;;;;;;6241086;22;20015;-72
2022/01/05 08:28:22;;;;;;;2.55;0.50;;;7.70;99.90;;;;;;6281497;22;20019;-71
2022/01/05 08:30:49;;;;;;;1.05;0.47;;;7.70;99.90;;;;;;6271915;22;20113;-71
2022/01/05 08:33:17;;;;;;;0.93;0.50;;;7.70;99.90;;;;;;6256586;22;20471;-71
2022/01/05 08:35:44;;;;;;;4.60;0.52;;;7.70;99.90;;;;;;6259713;22;20016;-71
2022/01/05 08:38:12;;;;;;;0.70;0.50;;;7.60;99.90;;;;;;6237767;22;20635;-71
2022/01/05 08:40:38;;;;;;;0.95;0.50;;;7.70;99.90;;;;;;6252095;22;20005;-71
2022/01/05 08:43:06;;;;;;;2.85;0.60;;;7.60;99.90;;;;;;6249447;22;20015;-71
2022/01/05 08:45:33;;;;;;;0.98;0.40;;;7.60;99.90;;;;;;6257292;22;20012;-71
2022/01/05 08:47:59;;;;;;;2.13;0.70;;;7.90;99.90;;;;;;6255198;22;20023;-71
2022/01/05 08:50:28;;;;;;;0.60;0.30;;;7.80;99.90;;;;;;6270065;22;20089;-71
2022/01/05 08:52:57;;;;;;;3.78;0.52;;;7.80;99.90;;;;;;6243911;22;20027;-71
2022/01/05 08:55:27;;;;;;;3.15;0.80;;;7.90;99.90;;;;;;6241464;22;20806;-71
2022/01/05 08:57:54;;;;;;;2.92;0.50;;;7.80;99.90;;;;;;6256401;22;20455;-71
2022/01/05 09:00:20;;;;;;;3.10;0.70;;;7.90;99.90;;;;;;6264090;22;20020;-71
2022/01/05 09:02:47;;;;;;;5.03;0.75;;;8.00;99.90;;;;;;6261658;22;20031;-72
2022/01/05 09:05:13;;;;;;;4.05;0.70;;;8.00;99.90;;;;;;6258545;22;20355;-73
2022/01/05 09:07:40;;;;;;;1.98;0.70;;;8.20;99.90;;;;;;6256047;22;20020;-72
2022/01/05 09:10:08;;;;;;;3.03;0.60;;;8.40;99.90;;;;;;6269060;22;20019;-71
2022/01/05 09:12:34;;;;;;;2.72;0.82;;;8.40;99.90;;;;;;6249589;22;20031;-72
2022/01/05 09:15:01;;;;;;;2.90;0.68;;;8.60;99.90;;;;;;6240611;22;20100;-72
2022/01/05 09:17:29;;;;;;;2.50;0.60;;;8.80;99.90;;;;;;6237190;23;20012;-71
2022/01/05 09:19:55;;;;;;;1.83;0.60;;;9.00;99.90;;;;;;6239106;22;20095;-71
2022/01/05 09:22:23;;;;;;;3.50;0.70;;;9.00;99.90;;;;;;6234013;22;20470;-71
2022/01/05 09:24:50;;;;;;;2.20;0.65;;;9.10;99.90;;;;;;6239267;22;20079;-74
2022/01/05 09:27:17;;;;;;;2.33;0.60;;;9.10;99.90;;;;;;6237408;22;20016;-72
2022/01/05 09:29:43;;;;;;;3.72;0.80;;;9.10;99.90;;;;;;6261036;22;20511;-70
2022/01/05 09:32:09;;;;;;;2.85;0.70;;;9.20;99.90;;;;;;6230963;22;20014;-70
2022/01/05 09:34:41;;;;;;;3.55;0.60;;;9.20;99.90;;;;;;6249553;22;20095;-71
2022/01/05 09:37:20;;;;;;;4.55;0.90;;;9.20;99.90;;;;;;6248068;22;20034;-71
2022/01/05 09:42:32;;;;;;;2.70;0.80;;;9.20;99.90;;;;;;6238480;22;20022;-73
2022/01/05 09:44:59;;;;;;;2.97;0.85;;;9.30;99.90;;;;;;6213279;23;20405;-72
2022/01/05 09:48:03;;;;;;;3.30;0.80;;;9.30;99.90;;;;;;6247651;22;20448;-71
2022/01/05 09:50:29;;;;;;;2.17;0.73;;;9.40;99.90;;;;;;6268724;22;20019;-72
2022/01/05 09:52:55;;;;;;;3.13;0.95;;;9.50;99.90;;;;;;6244688;22;20034;-72
2022/01/05 09:55:23;;;;;;;4.20;0.82;;;9.50;99.90;;;;;;6237700;22;20035;-72
2022/01/05 09:57:50;;;;;;;4.35;0.85;;;9.60;99.90;;;;;;6255794;22;20008;-72
2022/01/05 10:00:16;;;;;;;3.30;0.80;;;9.50;99.90;;;;;;6235902;22;20325;-71
2022/01/05 10:02:45;;;;;;;5.78;0.77;;;9.50;99.90;;;;;;6239887;22;20019;-73
2022/01/05 10:05:13;;;;;;;2.10;0.60;;;9.50;99.90;;;;;;6238116;22;20091;-73
2022/01/05 10:07:41;;;;;;;2.00;0.70;;;9.50;99.90;;;;;;6240501;22;20455;-76
2022/01/05 10:10:08;;;;;;;3.53;0.85;;;9.50;99.90;;;;;;6237139;22;20016;-72
2022/01/05 10:12:35;;;;;;;5.57;0.88;;;9.70;99.90;;;;;;6237089;22;20443;-72
2022/01/05 10:15:01;;;;;;;2.30;0.63;;;9.70;99.90;;;;;;6239678;22;20012;-72
2022/01/05 10:17:31;;;;;;;1.67;0.70;;;9.80;99.90;;;;;;6254317;22;20082;-72
2022/01/05 10:20:11;;;;;;;4.63;1.17;;;10.00;99.90;;;;;;6268523;22;20027;-73
2022/01/05 10:22:41;;;;;;;4.38;0.85;;;10.10;99.90;;;;;;6248012;22;20087;-71
2022/01/05 10:25:09;;;;;;;2.45;0.95;;;10.10;99.90;;;;;;6212331;22;20062;-71
2022/01/05 10:27:35;;;;;;;3.20;1.08;;;10.30;99.90;;;;;;6248408;22;20007;-72
2022/01/05 10:30:09;;;;;;;4.03;1.10;;;10.50;99.90;;;;;;6245389;22;20020;-74
2022/01/05 10:32:36;;;;;;;5.18;0.90;;;10.70;99.90;;;;;;6240506;22;20031;-71
2022/01/05 10:35:11;;;;;;;1.65;0.70;;;10.70;99.90;;;;;;6239308;22;20019;-72
2022/01/05 10:37:43;;;;;;;2.10;0.75;;;10.70;99.90;;;;;;6249595;22;20016;-74
2022/01/05 10:40:19;;;;;;;1.65;0.60;;;10.70;99.90;;;;;;6238141;22;20009;-72
2022/01/05 10:42:52;;;;;;;2.00;0.95;;;10.70;99.90;;;;;;6239866;22;20096;-73
2022/01/05 10:45:19;;;;;;;;;;;10.70;99.90;;;;;;6249918;22;20020;-73
2022/01/05 10:48:05;;;;;;;4.57;1.10;;;10.60;99.90;;;;;;6248177;22;19985;-73
2022/01/05 10:50:32;;;;;;;1.65;0.85;;;10.80;99.90;;;;;;6238335;22;20081;-72
2022/01/05 10:52:58;;;;;;;2.58;0.88;;;10.70;99.90;;;;;;6240767;22;20041;-72
2022/01/05 10:55:27;;;;;;;1.77;0.80;;;10.70;99.90;;;;;;6294259;22;20079;-72
2022/01/05 10:58:10;;;;;;;2.90;0.60;;;10.90;99.90;;;;;;6259370;22;20011;-71
2022/01/05 11:00:39;;;;;;;4.30;0.95;;;10.90;99.90;;;;;;6237336;22;20078;-72
2022/01/05 11:03:39;;;;;;;2.70;0.70;;;10.80;99.90;;;;;;6238809;22;20446;-71
2022/01/05 11:06:17;;;;;;;2.50;0.95;;;10.80;99.90;;;;;;6199889;22;20024;-72
2022/01/05 11:09:04;;;;;;;2.67;1.05;;;10.80;99.90;;;;;;6226023;22;20119;-71
2022/01/05 11:11:41;;;;;;;1.77;0.90;;;10.80;99.90;;;;;;6239011;22;20012;-73
2022/01/05 11:14:09;;;;;;;2.00;0.90;;;10.90;99.90;;;;;;6249501;22;20379;-72
2022/01/05 11:16:39;;;;;;;2.70;0.90;;;11.00;99.90;;;;;;6248243;22;20034;-72
2022/01/05 11:19:23;;;;;;;2.95;0.85;;;11.00;99.90;;;;;;6255103;22;20012;-72
2022/01/05 11:22:00;;;;;;;2.92;1.00;;;11.10;99.90;;;;;;6272060;22;20038;-73
2022/01/05 11:24:28;;;;;;;4.57;1.10;;;11.30;99.90;;;;;;6270405;22;20091;-71
2022/01/05 11:26:55;;;;;;;2.38;1.00;;;11.50;99.90;;;;;;6247148;22;20507;-72
2022/01/05 11:29:21;;;;;;;2.92;1.08;;;11.50;99.90;;;;;;6251644;22;20020;-72
2022/01/05 11:31:47;;;;;;;4.78;1.08;;;11.20;99.90;;;;;;6239093;22;20336;-72
2022/01/05 11:34:14;;;;;;;3.80;1.00;;;11.20;99.90;;;;;;6237244;22;20023;-73
2022/01/05 11:36:42;;;;;;;5.07;0.88;;;11.20;99.90;;;;;;6241182;22;20099;-73
2022/01/05 11:39:08;;;;;;;4.18;1.02;;;11.30;99.90;;;;;;6250559;22;20072;-73
2022/01/05 11:41:43;;;;;;;3.22;1.00;;;11.40;99.90;;;;;;6240091;22;20466;-72
2022/01/05 11:44:09;;;;;;;4.72;1.20;;;11.20;99.90;;;;;;6237890;22;20016;-71
2022/01/05 11:46:37;;;;;;;3.08;0.90;;;11.30;99.90;;;;;;6238637;22;20015;-72
2022/01/05 11:49:06;;;;;;;3.35;1.10;;;11.10;99.90;;;;;;6238887;22;20361;-72
2022/01/05 11:51:45;;;;;;;3.33;1.10;;;11.10;99.90;;;;;;6238051;23;20012;-73
2022/01/05 11:54:13;;;;;;;5.05;1.15;;;11.60;99.90;;;;;;6254005;22;20019;-72
2022/01/05 11:56:42;;;;;;;4.70;1.33;;;11.80;99.90;;;;;;6271076;22;20004;-71
2022/01/05 11:59:24;;;;;;;4.20;0.82;;;11.90;99.90;;;;;;6269402;22;20020;-73
2022/01/05 12:02:03;;;;;;;4.55;1.00;;;11.90;99.90;;;;;;6246873;22;20459;-73
2022/01/05 12:04:30;;;;;;;5.05;1.13;;;13.10;99.90;;;;;;6239828;22;20020;-72
2022/01/05 12:07:03;;;;;;;4.07;1.10;;;15.10;99.10;;;;;;6240461;22;20012;-73
2022/01/05 12:09:31;;;;;;;3.92;1.17;;;14.70;98.90;;;;;;6238159;22;20015;-73
2022/01/05 12:12:02;;;;;;;3.92;1.23;;;16.50;96.60;;;;;;6250630;22;20022;-72
2022/01/05 12:14:30;;;;;;;3.53;0.77;;;15.70;95.90;;;;;;6269510;22;20024;-74
2022/01/05 12:17:09;;;;;;;3.72;1.20;;;14.10;97.20;;;;;;6259446;22;20522;-72
2022/01/05 12:19:46;;;;;;;3.50;1.30;;;13.70;98.00;;;;;;6239504;22;20321;-73
2022/01/05 12:22:21;;;;;;;1.55;0.90;;;13.50;98.00;;;;;;6238425;22;20024;-73
2022/01/05 12:25:00;;;;;;;3.17;1.20;;;14.10;98.10;;;;;;6247114;22;20012;-72
2022/01/05 12:27:37;;;;;;;4.95;1.10;;;15.80;96.50;;;;;;6237536;22;20047;-73
2022/01/05 12:30:27;;;;;;;1.33;0.90;;;16.00;94.40;;;;;;6249275;22;20016;-73
2022/01/05 12:33:07;;;;;;;1.80;1.05;;;15.90;95.50;;;;;;6276815;22;20073;-73
2022/01/05 12:36:02;;;;;;;3.47;1.20;;;17.20;93.90;;;;;;6258067;22;20093;-72
2022/01/05 12:38:38;;;;;;;3.50;1.30;;;17.60;93.40;;;;;;6224175;22;20012;-73
2022/01/05 12:41:30;;;;;;;2.95;1.25;;;17.10;94.40;;;;;;6236501;22;20399;-72
2022/01/05 12:44:18;;;;;;;2.75;1.23;;;16.50;94.70;;;;;;6237788;22;20062;-74
2022/01/05 12:46:48;;;;;;;6.78;1.73;;;17.20;94.60;;;;;;6229963;22;20047;-73
2022/01/05 12:49:16;;;;;;;2.30;1.15;;;20.10;92.40;;;;;;6252606;22;20098;-72
2022/01/05 12:51:52;;;;;;;4.68;1.85;;;20.80;90.10;;;;;;6248666;22;20046;-73
2022/01/05 12:54:28;;;;;;;3.58;1.20;;;22.00;87.50;;;;;;6249627;22;20496;-72